createdAt,value
2023-04-01T00:01:50.727Z,11.47
2023-04-01T00:05:11.598Z,11.44
2023-04-01T00:07:07.912Z,11.47
2023-04-01T00:09:59.079Z,11.44
2023-04-01T00:16:35.089Z,11.40
2023-04-01T00:27:05.495Z,11.41
2023-04-01T00:29:57.673Z,11.41
2023-04-01T00:32:31.728Z,11.35
2023-04-01T00:34:40.206Z,11.26
2023-04-01T00:36:07.811Z,11.41
2023-04-01T00:38:50.253Z,11.51
2023-04-01T00:45:06.448Z,11.51
2023-04-01T00:48:47.555Z,11.35
2023-04-01T00:53:42.384Z,11.36
2023-04-01T01:02:00.859Z,11.41
2023-04-01T01:04:20.648Z,11.43
2023-04-01T01:09:30.097Z,11.44
2023-04-01T01:11:37.049Z,11.60
2023-04-01T01:14:23.945Z,11.45
2023-04-01T01:24:34.416Z,11.41
2023-04-01T01:26:05.276Z,11.50
2023-04-01T01:33:28.490Z,11.48
2023-04-01T01:38:26.233Z,11.26
2023-04-01T01:41:12.167Z,11.27
2023-04-01T01:42:41.196Z,11.27
2023-04-01T01:46:49.725Z,11.12
2023-04-01T01:48:50.652Z,11.27
2023-04-01T01:50:18.756Z,11.30
2023-04-01T01:52:07.451Z,11.37
2023-04-01T01:54:36.161Z,11.41
2023-04-01T01:56:07.464Z,11.29
2023-04-01T01:57:06.266Z,11.27
2023-04-01T01:58:06.130Z,11.33
2023-04-01T02:01:25.011Z,11.30
2023-04-01T02:03:57.870Z,11.23
2023-04-01T02:08:29.822Z,11.23
2023-04-01T02:10:31.623Z,11.44
2023-04-01T02:13:00.400Z,11.48
2023-04-01T02:17:05.891Z,11.43
2023-04-01T02:21:20.348Z,11.29
2023-04-01T02:26:17.547Z,11.48
2023-04-01T02:29:36.278Z,11.51
2023-04-01T02:31:05.187Z,11.51
2023-04-01T02:37:14.072Z,11.25
2023-04-01T02:40:59.822Z,11.30
2023-04-01T02:43:47.855Z,11.47
2023-04-01T02:46:06.970Z,11.59
2023-04-01T02:48:35.861Z,11.54
2023-04-01T02:50:24.541Z,11.48
2023-04-01T02:51:56.013Z,11.51
2023-04-01T02:53:52.608Z,11.50
2023-04-01T02:55:51.762Z,11.55
2023-04-01T02:57:23.477Z,11.52
2023-04-01T02:58:53.486Z,11.62
2023-04-01T03:05:28.527Z,11.59
2023-04-01T03:08:37.837Z,11.57
2023-04-01T03:10:04.711Z,11.47
2023-04-01T03:13:34.148Z,11.69
2023-04-01T03:18:23.132Z,11.68
2023-04-01T03:19:21.247Z,11.70
2023-04-01T03:20:21.563Z,11.73
2023-04-01T03:22:22.319Z,11.70
2023-04-01T03:24:18.166Z,11.57
2023-04-01T03:25:48.113Z,11.54
2023-04-01T03:33:34.673Z,11.62
2023-04-01T03:35:03.580Z,11.62
2023-04-01T03:39:00.106Z,11.59
2023-04-01T03:41:56.360Z,11.62
2023-04-01T03:43:25.298Z,11.63
2023-04-01T03:46:26.020Z,11.65
2023-04-01T03:48:23.861Z,11.63
2023-04-01T03:51:19.233Z,11.63
2023-04-01T03:55:00.802Z,11.52
2023-04-01T03:59:36.328Z,11.55
2023-04-01T04:01:04.572Z,11.48
2023-04-01T04:03:28.524Z,11.47
2023-04-01T04:05:00.841Z,11.35
2023-04-01T04:09:53.889Z,11.45
2023-04-01T04:13:03.527Z,11.48
2023-04-01T04:16:51.681Z,11.62
2023-04-01T04:20:13.397Z,11.68
2023-04-01T04:22:34.157Z,11.70
2023-04-01T04:27:22.222Z,11.78
2023-04-01T04:30:24.176Z,11.78
2023-04-01T04:33:00.403Z,11.75
2023-04-01T04:36:39.532Z,11.78
2023-04-01T04:38:09.722Z,11.68
2023-04-01T04:42:21.496Z,11.78
2023-04-01T04:47:25.179Z,11.84
2023-04-01T04:50:11.687Z,11.75
2023-04-01T04:55:19.445Z,11.78
2023-04-01T05:04:54.262Z,11.68
2023-04-01T05:07:14.091Z,11.77
2023-04-01T05:10:26.272Z,11.87
2023-04-01T05:12:29.854Z,11.88
2023-04-01T05:15:23.188Z,11.84
2023-04-01T05:17:13.408Z,11.86
2023-04-01T05:22:35.275Z,11.83
2023-04-01T05:25:16.613Z,11.81
2023-04-01T05:28:07.382Z,11.75
2023-04-01T05:33:14.575Z,11.60
2023-04-01T05:36:46.006Z,11.70
2023-04-01T05:41:12.485Z,11.70
2023-04-01T05:42:59.294Z,11.70
2023-04-01T05:45:50.631Z,11.66
2023-04-01T05:49:04.057Z,11.72
2023-04-01T05:55:58.843Z,11.63
2023-04-01T05:58:54.723Z,11.75
2023-04-01T06:00:23.929Z,11.81
2023-04-01T06:02:12.575Z,11.77
2023-04-01T06:07:30.903Z,11.68
2023-04-01T06:09:59.183Z,11.75
2023-04-01T06:11:58.130Z,11.84
2023-04-01T06:13:26.106Z,11.87
2023-04-01T06:16:35.474Z,11.73
2023-04-01T06:18:34.159Z,11.66
2023-04-01T06:21:21.396Z,11.70
2023-04-01T06:22:50.336Z,11.68
2023-04-01T06:24:39.112Z,11.72
2023-04-01T06:27:06.831Z,11.72
2023-04-01T06:29:07.734Z,11.63
2023-04-01T06:31:06.568Z,11.68
2023-04-01T06:34:38.452Z,11.68
2023-04-01T06:36:05.508Z,11.72
2023-04-01T06:38:06.592Z,11.60
2023-04-01T06:40:06.837Z,11.65
2023-04-01T06:43:02.478Z,11.72
2023-04-01T06:47:05.610Z,11.77
2023-04-01T06:49:51.970Z,11.73
2023-04-01T06:51:20.895Z,11.73
2023-04-01T06:53:48.412Z,11.94
2023-04-01T06:56:21.149Z,11.91
2023-04-01T06:59:45.261Z,11.94
2023-04-01T07:05:26.725Z,11.86
2023-04-01T07:07:53.934Z,11.99
2023-04-01T07:09:54.019Z,12.00
2023-04-01T07:14:20.640Z,12.06
2023-04-01T07:21:15.333Z,12.20
2023-04-01T07:24:56.684Z,12.29
2023-04-01T07:28:25.031Z,12.27
2023-04-01T07:39:16.729Z,12.36
2023-04-01T07:43:25.641Z,12.55
2023-04-01T07:45:15.473Z,12.60
2023-04-01T07:50:19.572Z,12.65
2023-04-01T07:52:38.108Z,12.62
2023-04-01T07:54:05.274Z,12.70
2023-04-01T07:56:15.087Z,12.78
2023-04-01T08:02:33.848Z,12.90
2023-04-01T08:05:23.058Z,13.04
2023-04-01T08:08:40.504Z,12.93
2023-04-01T08:12:21.376Z,12.98
2023-04-01T08:13:51.528Z,13.04
2023-04-01T08:17:10.446Z,13.09
2023-04-01T08:21:09.654Z,13.12
2023-04-01T08:24:37.162Z,13.15
2023-04-01T08:27:38.152Z,13.23
2023-04-01T08:29:05.128Z,13.33
2023-04-01T08:32:51.595Z,13.37
2023-04-01T08:36:30.969Z,13.33
2023-04-01T08:40:28.453Z,13.46
2023-04-01T08:44:39.719Z,13.60
2023-04-01T08:46:38.468Z,13.67
2023-04-01T08:48:10.356Z,13.67
2023-04-01T08:49:57.349Z,13.70
2023-04-01T08:52:27.552Z,13.65
2023-04-01T08:53:57.442Z,13.74
2023-04-01T08:59:36.422Z,13.74
2023-04-01T09:01:04.117Z,13.81
2023-04-01T09:02:35.275Z,13.85
2023-04-01T09:05:51.754Z,13.83
2023-04-01T09:07:50.740Z,13.92
2023-04-01T09:11:16.134Z,14.12
2023-04-01T09:14:21.986Z,14.30
2023-04-01T09:15:50.336Z,14.35
2023-04-01T09:17:19.147Z,14.37
2023-04-01T09:26:58.493Z,14.66
2023-04-01T09:30:44.703Z,14.92
2023-04-01T09:32:15.011Z,15.02
2023-04-01T09:33:44.435Z,15.07
2023-04-01T09:36:35.875Z,15.06
2023-04-01T09:39:05.019Z,15.22
2023-04-01T09:42:30.879Z,15.43
2023-04-01T09:46:32.573Z,15.62
2023-04-01T09:49:04.301Z,15.77
2023-04-01T09:50:33.271Z,15.80
2023-04-01T09:52:32.131Z,15.92
2023-04-01T09:58:20.590Z,15.95
2023-04-01T10:05:45.855Z,16.15
2023-04-01T10:09:52.473Z,16.32
2023-04-01T10:12:39.378Z,16.43
2023-04-01T10:16:14.235Z,16.54
2023-04-01T10:22:04.823Z,16.51
2023-04-01T10:25:52.300Z,16.31
2023-04-01T10:28:20.971Z,16.29
2023-04-01T10:33:11.771Z,16.12
2023-04-01T10:36:51.245Z,16.79
2023-04-01T10:40:01.954Z,17.46
2023-04-01T10:41:30.172Z,17.72
2023-04-01T10:43:00.895Z,17.82
2023-04-01T10:45:19.856Z,17.72
2023-04-01T10:47:25.814Z,17.65
2023-04-01T10:49:25.581Z,17.72
2023-04-01T10:51:15.285Z,17.65
2023-04-01T10:54:55.089Z,17.14
2023-04-01T10:56:24.175Z,16.89
2023-04-01T11:01:45.406Z,16.10
2023-04-01T11:03:18.209Z,16.01
2023-04-01T11:07:00.649Z,15.80
2023-04-01T11:10:56.729Z,15.77
2023-04-01T11:15:17.382Z,15.58
2023-04-01T11:19:13.594Z,15.61
2023-04-01T11:23:04.200Z,15.68
2023-04-01T11:28:02.168Z,15.51
2023-04-01T11:29:59.091Z,15.52
2023-04-01T11:32:22.837Z,15.73
2023-04-01T11:34:21.161Z,15.73
2023-04-01T11:37:14.886Z,15.91
2023-04-01T11:43:22.959Z,15.88
2023-04-01T11:44:44.590Z,16.10
2023-04-01T11:49:16.881Z,16.47
2023-04-01T11:53:54.835Z,16.64
2023-04-01T11:58:54.657Z,16.21
2023-04-01T12:00:57.900Z,16.28
2023-04-01T12:04:38.174Z,16.21
2023-04-01T12:09:58.503Z,15.98
2023-04-01T12:11:34.977Z,15.97
2023-04-01T12:15:42.785Z,15.83
2023-04-01T12:17:10.994Z,15.54
2023-04-01T12:19:29.617Z,15.29
2023-04-01T12:20:29.671Z,15.31
2023-04-01T12:21:29.611Z,15.21
2023-04-01T12:25:39.946Z,15.19
2023-04-01T12:27:29.241Z,15.24
2023-04-01T12:29:28.109Z,15.31
2023-04-01T12:32:28.530Z,15.19
2023-04-01T12:34:47.234Z,15.06
2023-04-01T12:38:16.862Z,15.17
2023-04-01T12:47:04.988Z,15.10
2023-04-01T12:49:23.595Z,15.11
2023-04-01T12:51:26.570Z,15.17
2023-04-01T12:53:13.203Z,15.22
2023-04-01T12:56:02.372Z,15.28
2023-04-01T13:00:38.108Z,15.35
2023-04-01T13:06:05.534Z,15.36
2023-04-01T13:11:27.148Z,15.24
2023-04-01T13:13:56.405Z,15.24
2023-04-01T13:16:34.399Z,15.06
2023-04-01T13:18:32.355Z,15.09
2023-04-01T13:21:36.302Z,15.10
2023-04-01T13:23:08.904Z,15.06
2023-04-01T13:27:17.729Z,15.17
2023-04-01T13:30:16.227Z,15.18
2023-04-01T13:34:27.960Z,15.22
2023-04-01T13:36:30.614Z,15.15
2023-04-01T13:40:12.428Z,15.22
2023-04-01T13:42:03.725Z,15.27
2023-04-01T13:43:11.509Z,15.24
2023-04-01T13:44:42.464Z,15.22
2023-04-01T13:45:43.855Z,15.27
2023-04-01T13:46:40.439Z,15.22
2023-04-01T13:54:07.580Z,15.04
2023-04-01T13:56:38.049Z,14.94
2023-04-01T13:59:27.784Z,14.66
2023-04-01T14:05:49.921Z,14.77
2023-04-01T14:08:20.773Z,14.72
2023-04-01T14:11:05.403Z,14.85
2023-04-01T14:14:42.200Z,14.79
2023-04-01T14:17:12.874Z,14.89
2023-04-01T14:19:06.233Z,14.97
2023-04-01T14:25:58.764Z,14.85
2023-04-01T14:38:08.166Z,14.62
2023-04-01T14:41:43.815Z,14.51
2023-04-01T14:44:06.140Z,14.40
2023-04-01T14:47:24.305Z,14.44
2023-04-01T14:48:53.411Z,14.36
2023-04-01T14:50:40.187Z,14.35
2023-04-01T14:53:03.925Z,14.11
2023-04-01T14:55:58.431Z,13.90
2023-04-01T14:58:16.781Z,13.78
2023-04-01T15:00:15.166Z,13.71
2023-04-01T15:04:09.777Z,13.78
2023-04-01T15:06:12.132Z,13.89
2023-04-01T15:07:42.101Z,13.89
2023-04-01T15:13:26.664Z,14.05
2023-04-01T15:16:38.923Z,13.93
2023-04-01T15:18:24.752Z,13.95
2023-04-01T15:21:15.969Z,14.10
2023-04-01T15:24:21.212Z,13.95
2023-04-01T15:30:03.691Z,13.96
2023-04-01T15:34:27.100Z,13.97
2023-04-01T15:35:58.097Z,13.87
2023-04-01T15:38:47.643Z,13.49
2023-04-01T15:43:19.618Z,13.18
2023-04-01T15:46:14.093Z,13.12
2023-04-01T15:49:32.321Z,13.04
2023-04-01T15:53:47.381Z,13.03
2023-04-01T15:58:03.006Z,12.78
2023-04-01T16:01:18.999Z,12.68
2023-04-01T16:05:41.922Z,12.78
2023-04-01T16:07:12.799Z,12.82
2023-04-01T16:10:04.800Z,12.64
2023-04-01T16:11:37.944Z,12.67
2023-04-01T16:13:25.704Z,12.60
2023-04-01T16:19:22.932Z,12.58
2023-04-01T16:20:35.306Z,12.60
2023-04-01T16:22:58.666Z,12.60
2023-04-01T16:28:09.823Z,12.75
2023-04-01T16:30:42.507Z,12.64
2023-04-01T16:34:49.759Z,12.43
2023-04-01T16:36:22.785Z,12.36
2023-04-01T16:38:29.808Z,12.27
2023-04-01T16:39:58.715Z,12.24
2023-04-01T16:45:44.701Z,12.10
2023-04-01T16:47:54.897Z,11.90
2023-04-01T16:53:35.512Z,11.97
2023-04-01T16:55:40.957Z,11.83
2023-04-01T16:57:09.173Z,11.84
2023-04-01T17:00:09.178Z,11.80
2023-04-01T17:02:53.640Z,11.86
2023-04-01T17:09:17.787Z,11.68
2023-04-01T17:11:06.426Z,11.75
2023-04-01T17:14:37.991Z,11.63
2023-04-01T17:16:34.976Z,11.52
2023-04-01T17:22:39.396Z,11.55
2023-04-01T17:25:19.659Z,11.41
2023-04-01T17:27:37.349Z,11.29
2023-04-01T17:29:36.629Z,11.27
2023-04-01T17:30:37.208Z,11.17
2023-04-01T17:31:36.674Z,11.25
2023-04-01T17:39:34.670Z,11.26
2023-04-01T17:41:37.774Z,11.12
2023-04-01T17:46:45.369Z,11.04
2023-04-01T17:51:34.847Z,10.96
2023-04-01T17:53:36.599Z,10.99
2023-04-01T17:57:34.840Z,10.89
2023-04-01T18:00:18.197Z,11.00
2023-04-01T18:02:35.125Z,10.99
2023-04-01T18:04:23.756Z,11.02
2023-04-01T18:05:57.719Z,10.97
2023-04-01T18:07:44.883Z,10.78
2023-04-01T18:11:01.153Z,10.99
2023-04-01T18:13:59.194Z,10.86
2023-04-01T18:16:22.310Z,10.71
2023-04-01T18:22:01.112Z,10.38
2023-04-01T18:24:04.193Z,10.38
2023-04-01T18:25:52.000Z,10.53
2023-04-01T18:30:06.297Z,10.34
2023-04-01T18:32:08.645Z,10.42
2023-04-01T18:35:46.432Z,10.23
2023-04-01T18:37:27.037Z,10.26
2023-04-01T18:52:18.285Z,10.33
2023-04-01T18:54:06.398Z,10.26
2023-04-01T18:56:03.899Z,10.25
2023-04-01T18:59:47.878Z,10.33
2023-04-01T19:01:48.186Z,10.31
2023-04-01T19:04:17.296Z,10.20
2023-04-01T19:06:41.798Z,10.04
2023-04-01T19:14:25.098Z,9.87
2023-04-01T19:16:17.055Z,9.94
2023-04-01T19:18:59.399Z,9.86
2023-04-01T19:21:03.299Z,9.73
2023-04-01T19:26:49.476Z,9.65
2023-04-01T19:31:20.839Z,9.68
2023-04-01T19:36:35.142Z,9.62
2023-04-01T19:40:56.354Z,9.65
2023-04-01T19:50:59.751Z,9.66
2023-04-01T19:53:50.926Z,9.56
2023-04-01T19:56:44.809Z,9.46
2023-04-01T19:58:14.804Z,9.55
2023-04-01T20:00:33.782Z,9.48
2023-04-01T20:02:37.788Z,9.51
2023-04-01T20:05:22.146Z,9.36
2023-04-01T20:08:19.296Z,9.41
2023-04-01T20:11:50.447Z,9.22
2023-04-01T20:14:56.151Z,9.19
2023-04-01T20:16:25.924Z,9.19
2023-04-01T20:18:17.102Z,9.23
2023-04-01T20:20:46.556Z,9.13
2023-04-01T20:21:24.120Z,9.06
2023-04-01T20:22:24.061Z,9.11
2023-04-01T20:23:24.126Z,9.19
2023-04-01T20:25:16.590Z,9.19
2023-04-01T20:27:34.280Z,9.16
2023-04-01T20:31:38.565Z,9.00
2023-04-01T20:34:27.351Z,9.06
2023-04-01T20:36:47.998Z,9.08
2023-04-01T20:38:41.033Z,9.03
2023-04-01T20:40:09.807Z,8.95
2023-04-01T20:43:51.202Z,8.91
2023-04-01T20:45:40.790Z,8.91
2023-04-01T20:54:35.934Z,9.11
2023-04-01T20:57:14.200Z,9.16
2023-04-01T21:00:04.247Z,9.06
2023-04-01T21:02:28.921Z,9.08
2023-04-01T21:05:26.551Z,9.10
2023-04-01T21:07:17.015Z,9.13
2023-04-01T21:11:35.211Z,8.92
2023-04-01T21:13:04.329Z,8.91
2023-04-01T21:15:28.658Z,8.91
2023-04-01T21:18:20.646Z,8.69
2023-04-01T21:19:50.657Z,8.66
2023-04-01T21:22:38.818Z,8.71
2023-04-01T21:24:32.998Z,8.76
2023-04-01T21:26:02.863Z,8.61
2023-04-01T21:27:52.369Z,8.70
2023-04-01T21:32:29.113Z,8.82
2023-04-01T21:38:23.666Z,8.64
2023-04-01T21:42:42.638Z,8.82
2023-04-01T21:44:32.503Z,8.79
2023-04-01T21:46:56.395Z,8.74
2023-04-01T21:50:07.233Z,8.70
2023-04-01T21:59:10.296Z,8.64
2023-04-01T22:03:06.002Z,8.58
2023-04-01T22:07:47.345Z,8.52
2023-04-01T22:09:48.655Z,8.42
2023-04-01T22:12:17.321Z,8.36
2023-04-01T22:13:49.171Z,8.44
2023-04-01T22:15:37.435Z,8.34
2023-04-01T22:17:07.032Z,8.33
2023-04-01T22:20:02.427Z,8.49
2023-04-01T22:23:45.610Z,8.24
2023-04-01T22:25:44.121Z,8.24
2023-04-01T22:28:33.824Z,8.15
2023-04-01T22:49:28.276Z,7.87
2023-04-01T22:58:56.244Z,7.95
2023-04-01T23:06:12.124Z,7.98
2023-04-01T23:09:38.370Z,7.90
2023-04-01T23:12:06.301Z,7.79
2023-04-01T23:15:05.474Z,7.58
2023-04-01T23:16:38.659Z,7.60
2023-04-01T23:19:23.516Z,7.67
2023-04-01T23:20:52.692Z,7.66
2023-04-01T23:22:53.763Z,7.57
2023-04-01T23:26:54.273Z,7.57
2023-04-01T23:29:46.618Z,7.66
2023-04-01T23:33:05.243Z,7.67
2023-04-01T23:34:36.209Z,7.56
2023-04-01T23:40:16.473Z,7.53
2023-04-01T23:41:48.843Z,7.58
2023-04-01T23:43:38.845Z,7.66
2023-04-01T23:52:25.398Z,7.77
2023-04-01T23:59:08.950Z,7.85
